Weather at L.F. Wade International International Airport

Public forecast

Using degrees Celsius for public forecast. Weather courtesy of forecast.io.

Current aviation weather report (METAR) for L.F. Wade International International Airport

Retrieved 2020/09/23 14:55 UTC (26 minutes ago):

TXKF 231455Z 30008KT 270V340 9999 FEW047 SCT075 SCT300 26/14 Q1015

Aviation forecast (TAF) for L.F. Wade International International Airport

Retrieved 2020/09/23 12:43 UTC (3 hours ago):

TAF TXKF 231133Z 2312/2412 30008KT 9999 FEW040 SCT060